Time;durP1;ratioP1;P1;durP2;ratioP2;P2;SDS_P1;SDS_P2;PMS_P1;PMS_P2;Temp;Humidity;BMP_temperature;BMP_pressure;BME280_temperature;BME280_humidity;BME280_pressure;Samples;Min_cycle;Max_cycle;Signal;HPM_P1;HPM_P2
2023/07/16 00:00:35;;;;;;;4.40;4.10;;;31.00;59.70;;;;;;5050103;28;20465;-73
2023/07/16 00:03:05;;;;;;;4.50;4.20;;;30.90;59.70;;;;;;5050456;28;20461;-74
2023/07/16 00:05:33;;;;;;;4.40;4.10;;;30.90;59.70;;;;;;5051382;28;20457;-74
2023/07/16 00:08:01;;;;;;;4.23;3.93;;;30.90;59.90;;;;;;5059632;28;20510;-74
2023/07/16 00:10:30;;;;;;;4.70;4.30;;;30.90;59.90;;;;;;5055558;28;20460;-74
2023/07/16 00:12:59;;;;;;;4.30;3.90;;;30.90;59.70;;;;;;5049108;28;20452;-74
2023/07/16 00:15:28;;;;;;;4.17;3.87;;;30.90;59.70;;;;;;5051918;28;20473;-74
2023/07/16 00:17:56;;;;;;;4.23;3.93;;;30.90;59.80;;;;;;5061647;28;20464;-74
2023/07/16 00:20:26;;;;;;;5.00;4.60;;;30.90;60.10;;;;;;5060580;28;20492;-74
2023/07/16 00:22:57;;;;;;;5.17;4.77;;;30.90;60.00;;;;;;5060389;28;21014;-74
2023/07/16 00:25:25;;;;;;;5.20;4.80;;;30.90;60.10;;;;;;5060298;28;20466;-74
2023/07/16 00:27:53;;;;;;;4.60;4.30;;;30.80;59.80;;;;;;5056717;28;20457;-74
2023/07/16 00:30:21;;;;;;;4.70;4.30;;;30.90;59.90;;;;;;5053323;28;20465;-74
2023/07/16 00:32:50;;;;;;;4.30;4.00;;;30.80;59.70;;;;;;5056231;28;20952;-73
2023/07/16 00:35:18;;;;;;;4.00;3.70;;;30.80;59.80;;;;;;5056656;28;20466;-74
2023/07/16 00:37:48;;;;;;;4.70;4.30;;;30.80;59.70;;;;;;5036752;28;20575;-74
2023/07/16 00:40:16;;;;;;;4.90;4.60;;;30.80;59.80;;;;;;5032589;28;20473;-74
2023/07/16 00:42:45;;;;;;;4.30;4.00;;;30.80;59.80;;;;;;5052234;28;20480;-73
2023/07/16 00:45:14;;;;;;;4.70;4.23;;;30.80;59.80;;;;;;5053939;28;20910;-73
2023/07/16 00:47:46;;;;;;;4.50;4.17;;;30.80;59.70;;;;;;5056741;28;20461;-74
2023/07/16 00:50:14;;;;;;;4.57;4.23;;;30.80;59.90;;;;;;5055855;28;20465;-74
2023/07/16 00:52:44;;;;;;;4.00;3.80;;;30.80;59.90;;;;;;5057284;28;20472;-74
2023/07/16 00:55:14;;;;;;;4.83;4.53;;;30.80;60.20;;;;;;5054790;28;20455;-73
2023/07/16 00:57:42;;;;;;;3.70;3.50;;;30.70;60.20;;;;;;5054796;28;20459;-74
2023/07/16 01:00:12;;;;;;;4.90;4.50;;;30.70;60.20;;;;;;5039816;28;20527;-73
2023/07/16 01:02:40;;;;;;;4.90;4.67;;;30.70;60.00;;;;;;5059101;28;20552;-74
2023/07/16 01:05:09;;;;;;;4.70;4.40;;;30.70;60.00;;;;;;5060349;28;20518;-74
2023/07/16 01:07:40;;;;;;;4.57;3.87;;;30.70;59.90;;;;;;5034447;28;20463;-74
2023/07/16 01:10:09;;;;;;;4.73;4.40;;;30.70;59.90;;;;;;5055832;28;20463;-74
2023/07/16 01:12:40;;;;;;;4.00;3.70;;;30.70;59.90;;;;;;5054602;28;20452;-73
2023/07/16 01:15:09;;;;;;;4.23;3.93;;;30.70;59.90;;;;;;5040683;28;20813;-74
2023/07/16 01:17:40;;;;;;;4.47;4.07;;;30.70;59.90;;;;;;5033941;28;20462;-74
2023/07/16 01:20:10;;;;;;;4.13;3.83;;;30.70;60.00;;;;;;5052213;28;20538;-74
2023/07/16 01:23:13;;;;;;;4.40;4.10;;;30.70;60.00;;;;;;5032636;28;20469;-74
2023/07/16 01:26:09;;;;;;;3.63;3.40;;;30.70;60.00;;;;;;5049098;28;20497;-74
2023/07/16 01:28:59;;;;;;;4.77;4.47;;;30.70;60.00;;;;;;5049635;28;20517;-74
2023/07/16 01:31:30;;;;;;;4.20;3.90;;;30.60;60.00;;;;;;5051611;28;20468;-73
2023/07/16 01:33:59;;;;;;;4.10;3.80;;;30.60;60.00;;;;;;5039073;28;20821;-74
2023/07/16 01:36:29;;;;;;;4.60;4.30;;;30.60;60.00;;;;;;5031863;28;20516;-73
2023/07/16 01:38:57;;;;;;;3.83;3.63;;;30.60;60.00;;;;;;5052274;28;21346;-74
2023/07/16 01:41:26;;;;;;;4.07;3.77;;;30.60;60.00;;;;;;5048983;28;20481;-73
2023/07/16 01:43:55;;;;;;;4.20;3.87;;;30.60;60.00;;;;;;5028260;28;20978;-74
2023/07/16 01:46:24;;;;;;;3.90;3.70;;;30.60;60.00;;;;;;5053576;28;20487;-74
2023/07/16 01:48:54;;;;;;;4.30;4.00;;;30.60;60.00;;;;;;5055255;28;21047;-74
2023/07/16 01:51:22;;;;;;;4.67;4.37;;;30.60;60.00;;;;;;5036842;28;20470;-74
2023/07/16 01:53:51;;;;;;;4.17;3.87;;;30.60;60.00;;;;;;5030588;28;20879;-74
2023/07/16 01:56:19;;;;;;;4.10;3.80;;;30.60;60.10;;;;;;5056353;28;20460;-74
2023/07/16 01:58:49;;;;;;;4.23;3.93;;;30.60;60.10;;;;;;5030330;28;20976;-73
2023/07/16 02:01:18;;;;;;;4.60;4.20;;;30.60;60.10;;;;;;5035907;28;20485;-73
2023/07/16 02:03:46;;;;;;;4.47;4.17;;;30.60;60.10;;;;;;5050253;28;20560;-73
2023/07/16 02:06:16;;;;;;;4.33;3.97;;;30.60;60.10;;;;;;5049712;28;21022;-73
2023/07/16 02:08:45;;;;;;;4.23;4.03;;;30.60;60.10;;;;;;5029928;28;20891;-73
2023/07/16 02:11:13;;;;;;;4.30;4.00;;;30.60;60.10;;;;;;5043688;28;21110;-73
2023/07/16 02:13:41;;;;;;;4.83;4.37;;;30.60;60.10;;;;;;5044160;28;20462;-73
2023/07/16 02:16:10;;;;;;;5.13;4.73;;;30.50;60.10;;;;;;5032527;28;20453;-73
2023/07/16 02:18:38;;;;;;;4.87;4.50;;;30.60;60.20;;;;;;5034595;28;20855;-73
2023/07/16 02:21:06;;;;;;;5.17;4.77;;;30.60;60.10;;;;;;5049097;28;20471;-73
2023/07/16 02:23:36;;;;;;;4.60;4.30;;;30.60;60.10;;;;;;5050655;28;20801;-73
2023/07/16 02:26:05;;;;;;;3.97;3.77;;;30.50;60.20;;;;;;5026557;28;20556;-73
2023/07/16 02:28:33;;;;;;;4.07;3.80;;;30.50;60.20;;;;;;5047646;28;20466;-73
2023/07/16 02:31:01;;;;;;;4.40;4.10;;;30.50;60.20;;;;;;5047495;28;20512;-73
2023/07/16 02:33:30;;;;;;;4.10;3.80;;;30.50;60.20;;;;;;5030881;28;20467;-73
2023/07/16 02:35:58;;;;;;;4.43;4.13;;;30.50;60.20;;;;;;5031651;28;20497;-73
2023/07/16 02:38:26;;;;;;;4.83;4.43;;;30.50;60.30;;;;;;5050056;28;20622;-73
2023/07/16 02:40:56;;;;;;;4.73;4.37;;;30.50;60.30;;;;;;5045603;28;20474;-73
2023/07/16 02:43:25;;;;;;;4.50;4.20;;;30.50;60.30;;;;;;5044678;28;20513;-73
2023/07/16 02:45:53;;;;;;;4.07;3.77;;;30.50;60.30;;;;;;5044701;28;20955;-73
2023/07/16 02:48:22;;;;;;;3.70;3.50;;;30.50;60.40;;;;;;5038181;28;21102;-73
2023/07/16 02:50:50;;;;;;;5.97;5.47;;;30.50;60.40;;;;;;5052663;28;20457;-73
2023/07/16 02:53:18;;;;;;;3.87;3.57;;;30.40;60.40;;;;;;5050072;28;20465;-73
2023/07/16 02:55:47;;;;;;;4.10;3.90;;;30.40;60.40;;;;;;5049652;28;20945;-73
2023/07/16 02:58:17;;;;;;;4.37;4.07;;;30.40;60.40;;;;;;5042349;28;20473;-73
2023/07/16 03:00:45;;;;;;;3.97;3.67;;;30.40;60.40;;;;;;5055378;28;20477;-73
2023/07/16 03:03:13;;;;;;;3.53;3.33;;;30.40;60.40;;;;;;5036216;28;20516;-73
2023/07/16 03:05:41;;;;;;;4.23;3.93;;;30.40;60.40;;;;;;5052441;28;20478;-73
2023/07/16 03:08:09;;;;;;;4.80;4.40;;;30.40;60.40;;;;;;5050545;28;20462;-73
2023/07/16 03:10:38;;;;;;;3.90;3.70;;;30.40;60.50;;;;;;5052293;28;20516;-73
2023/07/16 03:13:06;;;;;;;4.20;3.90;;;30.40;60.60;;;;;;5043611;28;20466;-73
2023/07/16 03:15:35;;;;;;;3.53;3.33;;;30.40;60.50;;;;;;5051679;28;20861;-73
2023/07/16 03:18:04;;;;;;;3.90;3.60;;;30.40;60.50;;;;;;5033919;28;20456;-73
2023/07/16 03:20:32;;;;;;;4.30;4.00;;;30.40;60.50;;;;;;5039978;28;20573;-73
2023/07/16 03:23:00;;;;;;;3.80;3.50;;;30.40;60.60;;;;;;5034995;28;20465;-73
2023/07/16 03:25:29;;;;;;;4.17;3.87;;;30.40;60.50;;;;;;5042049;28;20955;-73
2023/07/16 03:27:57;;;;;;;3.67;3.40;;;30.40;60.60;;;;;;5050931;28;20465;-73
2023/07/16 03:30:25;;;;;;;3.93;3.63;;;30.30;60.60;;;;;;5031464;28;20823;-73
2023/07/16 03:32:55;;;;;;;4.57;4.27;;;30.30;60.60;;;;;;5055198;28;20502;-73
2023/07/16 03:35:26;;;;;;;4.20;3.90;;;30.30;60.60;;;;;;5029877;28;20465;-73
2023/07/16 03:37:54;;;;;;;3.97;3.77;;;30.30;60.60;;;;;;5039328;28;20501;-73
2023/07/16 03:40:26;;;;;;;6.10;4.20;;;30.30;60.60;;;;;;5032725;28;20473;-73
2023/07/16 03:42:54;;;;;;;4.07;3.73;;;30.30;60.70;;;;;;5051923;28;20996;-73
2023/07/16 03:45:25;;;;;;;4.00;3.80;;;30.30;60.80;;;;;;5037594;28;20562;-73
2023/07/16 03:47:55;;;;;;;3.50;3.30;;;30.30;60.80;;;;;;5033863;28;20474;-73
2023/07/16 03:50:23;;;;;;;3.60;3.40;;;30.30;60.80;;;;;;5038741;28;20473;-73
2023/07/16 03:52:51;;;;;;;3.40;3.20;;;30.30;60.80;;;;;;5049214;28;20462;-73
2023/07/16 03:55:21;;;;;;;3.83;3.60;;;30.30;60.80;;;;;;5049802;28;20463;-73
2023/07/16 03:57:50;;;;;;;3.87;3.57;;;30.30;60.80;;;;;;5037124;28;20463;-73
2023/07/16 04:00:19;;;;;;;4.83;4.53;;;30.20;60.80;;;;;;5049800;28;20481;-73
2023/07/16 04:02:50;;;;;;;4.30;4.00;;;30.30;60.80;;;;;;5043951;28;20570;-73
2023/07/16 04:05:20;;;;;;;3.30;3.10;;;30.30;60.90;;;;;;5030590;28;20456;-73
2023/07/16 04:07:52;;;;;;;4.30;4.00;;;30.20;60.90;;;;;;5054877;28;20963;-73
2023/07/16 04:10:20;;;;;;;3.67;3.47;;;30.20;60.90;;;;;;5051238;28;20460;-73
2023/07/16 04:12:48;;;;;;;3.90;3.60;;;30.20;60.90;;;;;;5049202;28;20462;-73
2023/07/16 04:15:16;;;;;;;3.33;3.13;;;30.20;60.90;;;;;;5049390;28;20462;-73
2023/07/16 04:17:44;;;;;;;3.50;3.30;;;30.20;60.90;;;;;;5049046;28;20498;-73
2023/07/16 04:20:13;;;;;;;3.63;3.37;;;30.20;60.90;;;;;;5051931;28;20489;-73
2023/07/16 04:22:42;;;;;;;3.80;3.60;;;30.20;60.90;;;;;;5054961;28;20512;-73
2023/07/16 04:25:10;;;;;;;3.70;3.40;;;30.20;60.90;;;;;;5064228;28;20469;-73
2023/07/16 04:27:40;;;;;;;3.67;3.47;;;30.20;60.90;;;;;;5053651;28;20461;-73
2023/07/16 04:30:09;;;;;;;4.03;3.73;;;30.20;60.90;;;;;;5049757;28;20511;-73
2023/07/16 04:32:37;;;;;;;3.27;3.07;;;30.20;61.00;;;;;;5029365;28;20812;-73
2023/07/16 04:35:07;;;;;;;4.00;3.70;;;30.20;61.00;;;;;;5041639;28;20450;-73
2023/07/16 04:37:35;;;;;;;4.13;3.93;;;30.20;61.00;;;;;;5046367;28;20499;-73
2023/07/16 04:40:05;;;;;;;3.50;3.30;;;30.20;61.00;;;;;;5030421;28;20526;-73
2023/07/16 04:42:34;;;;;;;3.57;3.37;;;30.20;61.00;;;;;;5026352;28;21216;-73
2023/07/16 04:45:02;;;;;;;3.10;2.90;;;30.20;61.00;;;;;;5056477;28;20524;-73
2023/07/16 04:47:30;;;;;;;3.57;3.37;;;30.20;61.00;;;;;;5048972;28;20491;-73
2023/07/16 04:49:59;;;;;;;3.80;3.60;;;30.20;61.00;;;;;;5049544;28;20470;-73
2023/07/16 04:52:27;;;;;;;3.87;3.67;;;30.20;61.00;;;;;;5049872;28;20467;-73
2023/07/16 04:54:56;;;;;;;3.50;3.30;;;30.20;61.00;;;;;;5047285;28;20454;-73
2023/07/16 04:57:25;;;;;;;3.03;2.83;;;30.20;61.00;;;;;;5052429;28;20465;-73
2023/07/16 04:59:54;;;;;;;3.70;3.50;;;30.20;61.00;;;;;;5044117;28;20524;-73
2023/07/16 05:02:23;;;;;;;4.07;3.33;;;30.20;61.00;;;;;;5044745;28;20471;-73
2023/07/16 05:04:51;;;;;;;3.63;3.43;;;30.20;60.90;;;;;;5049839;28;20455;-73
2023/07/16 05:07:19;;;;;;;3.07;2.87;;;30.20;60.90;;;;;;5051733;28;20454;-73
2023/07/16 05:09:47;;;;;;;3.73;3.53;;;30.20;61.00;;;;;;5055182;28;20504;-73
2023/07/16 05:12:15;;;;;;;3.70;3.40;;;30.20;60.90;;;;;;5043610;28;20528;-73
2023/07/16 05:14:47;;;;;;;3.20;3.00;;;30.20;60.90;;;;;;5052740;28;20969;-73
2023/07/16 05:17:15;;;;;;;2.83;2.63;;;30.20;60.90;;;;;;5056390;28;20515;-73
2023/07/16 05:19:44;;;;;;;3.37;3.17;;;30.20;60.90;;;;;;5056763;28;20482;-73
2023/07/16 05:22:12;;;;;;;3.57;3.27;;;30.20;60.90;;;;;;5049597;28;20475;-73
2023/07/16 05:24:40;;;;;;;2.90;2.70;;;30.20;61.00;;;;;;5053590;28;20517;-73
2023/07/16 05:27:09;;;;;;;3.50;3.30;;;30.20;61.00;;;;;;5051943;28;20516;-73
2023/07/16 05:29:37;;;;;;;3.17;2.97;;;30.20;61.00;;;;;;5048427;28;20466;-73
2023/07/16 05:32:08;;;;;;;3.40;3.20;;;30.20;61.00;;;;;;5046803;28;20499;-73
2023/07/16 05:34:36;;;;;;;3.40;3.20;;;30.20;61.00;;;;;;5050572;28;20492;-73
2023/07/16 05:37:04;;;;;;;3.30;3.03;;;30.20;61.00;;;;;;5045194;28;20469;-73
2023/07/16 05:39:33;;;;;;;3.50;3.20;;;30.20;61.00;;;;;;5050989;28;20454;-73
2023/07/16 05:42:02;;;;;;;3.23;3.03;;;30.20;61.00;;;;;;5048780;28;20513;-73
2023/07/16 05:44:30;;;;;;;3.60;3.37;;;30.20;61.00;;;;;;5045084;28;20457;-73
2023/07/16 05:46:58;;;;;;;4.23;3.67;;;30.20;61.00;;;;;;5032525;28;20837;-73
2023/07/16 05:49:28;;;;;;;2.60;2.50;;;30.20;61.00;;;;;;5051633;28;20469;-73
2023/07/16 05:51:56;;;;;;;3.80;3.50;;;30.20;61.00;;;;;;5048977;28;20561;-73
2023/07/16 05:54:25;;;;;;;3.10;2.90;;;30.20;61.00;;;;;;5051935;28;20456;-73
2023/07/16 05:56:53;;;;;;;3.40;3.20;;;30.20;61.10;;;;;;5044679;28;21028;-73
2023/07/16 05:59:21;;;;;;;2.50;2.33;;;30.20;61.10;;;;;;5045839;28;20462;-73
2023/07/16 06:01:49;;;;;;;2.60;2.40;;;30.20;61.00;;;;;;5052775;28;20463;-73
2023/07/16 06:04:18;;;;;;;2.90;2.70;;;30.20;61.10;;;;;;5049060;28;20509;-73
2023/07/16 06:06:48;;;;;;;2.50;2.40;;;30.20;61.10;;;;;;5049529;28;20462;-73
2023/07/16 06:09:19;;;;;;;3.00;2.80;;;30.10;61.20;;;;;;5049117;28;20494;-73
2023/07/16 06:11:48;;;;;;;2.93;2.73;;;30.10;61.20;;;;;;5049240;28;20500;-73
2023/07/16 06:14:17;;;;;;;3.13;2.90;;;30.10;61.10;;;;;;5041446;28;21073;-73
2023/07/16 06:16:45;;;;;;;3.07;2.87;;;30.10;61.10;;;;;;5051013;28;20462;-73
2023/07/16 06:19:13;;;;;;;2.83;2.63;;;30.10;61.20;;;;;;5046973;28;20801;-73
2023/07/16 06:21:41;;;;;;;3.03;2.83;;;30.10;61.40;;;;;;5048734;28;20467;-73
2023/07/16 06:24:11;;;;;;;2.77;2.67;;;30.10;61.30;;;;;;5051382;28;20521;-73
2023/07/16 06:26:44;;;;;;;2.93;2.73;;;30.10;61.20;;;;;;5048571;28;20485;-73
2023/07/16 06:29:12;;;;;;;2.80;2.60;;;30.10;61.30;;;;;;5056372;28;20865;-73
2023/07/16 06:31:43;;;;;;;2.83;2.70;;;30.10;61.30;;;;;;5049114;28;20467;-73
2023/07/16 06:34:11;;;;;;;3.10;2.90;;;30.10;61.20;;;;;;5050345;28;20470;-73
2023/07/16 06:36:39;;;;;;;3.10;2.90;;;30.10;61.30;;;;;;5051034;28;20549;-73
2023/07/16 06:39:08;;;;;;;3.00;2.73;;;30.10;61.30;;;;;;5051964;28;20985;-73
2023/07/16 06:41:37;;;;;;;3.10;2.90;;;30.10;61.40;;;;;;5049493;28;20515;-73
2023/07/16 06:44:08;;;;;;;2.57;2.47;;;30.00;61.30;;;;;;5016773;28;20906;-73
2023/07/16 06:46:37;;;;;;;2.70;2.50;;;30.10;61.30;;;;;;5043705;28;20461;-73
2023/07/16 06:49:06;;;;;;;2.97;2.77;;;30.10;61.30;;;;;;5054994;28;20461;-73
2023/07/16 06:51:35;;;;;;;2.70;2.50;;;30.10;61.30;;;;;;5041430;28;20950;-73
2023/07/16 06:54:03;;;;;;;3.07;2.87;;;30.10;61.20;;;;;;5052394;28;20460;-73
2023/07/16 06:56:31;;;;;;;2.60;2.50;;;30.10;61.30;;;;;;5044959;28;20476;-73
2023/07/16 06:59:01;;;;;;;2.33;2.13;;;30.00;61.30;;;;;;5034821;28;20476;-73
2023/07/16 07:01:29;;;;;;;2.60;2.40;;;30.10;61.30;;;;;;5051686;28;20461;-73
2023/07/16 07:03:57;;;;;;;3.43;2.57;;;30.00;61.30;;;;;;5041863;28;20817;-73
2023/07/16 07:06:26;;;;;;;2.30;2.20;;;30.00;61.30;;;;;;5043243;28;20468;-73
2023/07/16 07:08:54;;;;;;;2.27;2.17;;;30.00;61.30;;;;;;5046995;28;20456;-73
2023/07/16 07:11:23;;;;;;;2.53;2.33;;;30.00;61.30;;;;;;5050401;28;20469;-73
2023/07/16 07:13:53;;;;;;;2.20;2.10;;;30.00;61.30;;;;;;5052377;28;20466;-73
2023/07/16 07:16:23;;;;;;;2.10;2.00;;;30.00;61.30;;;;;;5048712;28;20465;-73
2023/07/16 07:18:51;;;;;;;2.97;2.77;;;30.00;61.30;;;;;;5050595;28;20450;-73
2023/07/16 07:21:19;;;;;;;1.90;1.80;;;30.00;61.30;;;;;;5044739;28;20457;-73
2023/07/16 07:23:47;;;;;;;2.53;2.43;;;30.00;61.30;;;;;;5045542;28;20489;-73
2023/07/16 07:26:15;;;;;;;2.50;2.40;;;30.00;61.30;;;;;;5050680;28;21354;-73
2023/07/16 07:28:44;;;;;;;2.73;2.53;;;30.00;61.50;;;;;;5042614;28;20476;-73
2023/07/16 07:31:12;;;;;;;2.20;2.10;;;30.00;61.40;;;;;;5041781;28;20464;-73
2023/07/16 07:33:42;;;;;;;3.10;2.90;;;30.00;61.40;;;;;;5045490;28;20468;-73
2023/07/16 07:36:10;;;;;;;2.63;2.43;;;30.00;61.40;;;;;;5047775;28;20946;-73
2023/07/16 07:38:38;;;;;;;2.20;2.10;;;30.00;61.40;;;;;;5029898;28;20488;-73
2023/07/16 07:41:07;;;;;;;2.53;2.40;;;30.00;61.40;;;;;;5047781;28;21066;-73
2023/07/16 07:43:35;;;;;;;2.57;2.47;;;30.00;61.40;;;;;;5036956;28;20485;-73
2023/07/16 07:46:03;;;;;;;3.40;2.70;;;30.00;61.40;;;;;;5040228;28;20860;-73
2023/07/16 07:48:31;;;;;;;2.20;2.10;;;30.00;61.40;;;;;;5042703;28;20980;-73
2023/07/16 07:51:01;;;;;;;2.33;2.23;;;30.00;61.40;;;;;;5045067;28;21397;-73
2023/07/16 07:53:29;;;;;;;2.47;2.27;;;30.00;61.30;;;;;;5050213;28;20452;-73
2023/07/16 07:55:57;;;;;;;2.27;2.17;;;30.00;61.30;;;;;;5048593;28;20470;-73
2023/07/16 07:58:26;;;;;;;2.33;2.23;;;30.00;61.30;;;;;;5044071;28;20454;-73
2023/07/16 08:00:54;;;;;;;3.20;3.00;;;30.00;61.30;;;;;;5043837;28;20508;-73
2023/07/16 08:03:22;;;;;;;2.37;2.27;;;30.00;61.30;;;;;;5048060;28;20577;-73
2023/07/16 08:05:51;;;;;;;2.17;2.07;;;30.00;61.30;;;;;;5041624;28;20485;-73
2023/07/16 08:08:20;;;;;;;2.63;2.47;;;30.10;61.20;;;;;;5047910;28;20467;-73
2023/07/16 08:10:48;;;;;;;2.23;2.13;;;30.10;61.20;;;;;;5043808;28;20467;-74
2023/07/16 08:13:17;;;;;;;2.30;2.10;;;30.10;61.10;;;;;;5051094;28;20471;-73
2023/07/16 08:15:45;;;;;;;2.10;2.00;;;30.10;61.10;;;;;;5052490;28;20533;-73
2023/07/16 08:18:13;;;;;;;2.00;1.90;;;30.10;61.10;;;;;;5039236;28;20473;-74
2023/07/16 08:20:41;;;;;;;2.40;2.30;;;30.10;61.10;;;;;;5052370;28;20501;-73
2023/07/16 08:23:10;;;;;;;2.57;2.40;;;30.20;61.10;;;;;;5044016;28;20518;-73
2023/07/16 08:25:39;;;;;;;2.10;2.00;;;30.20;61.00;;;;;;5047738;28;20884;-73
2023/07/16 08:28:08;;;;;;;2.37;2.27;;;30.20;61.00;;;;;;5051337;28;20501;-73
2023/07/16 08:30:36;;;;;;;2.07;1.97;;;30.20;60.90;;;;;;5050861;28;20458;-73
2023/07/16 08:33:04;;;;;;;2.07;1.97;;;30.30;60.80;;;;;;5048348;28;20458;-73
2023/07/16 08:35:33;;;;;;;2.10;2.00;;;30.30;60.80;;;;;;5054720;28;20504;-73
2023/07/16 08:38:01;;;;;;;2.03;1.93;;;30.30;60.80;;;;;;5052460;28;20530;-73
2023/07/16 08:40:29;;;;;;;2.57;2.47;;;30.30;60.80;;;;;;5021030;28;20822;-73
2023/07/16 08:43:00;;;;;;;2.17;2.07;;;30.30;60.60;;;;;;5046135;28;20513;-73
2023/07/16 08:45:30;;;;;;;2.40;2.20;;;30.30;60.60;;;;;;5060914;28;20480;-73
2023/07/16 08:47:58;;;;;;;2.37;2.20;;;30.30;60.70;;;;;;5048810;28;20473;-73
2023/07/16 08:50:28;;;;;;;1.93;1.83;;;30.30;60.60;;;;;;5047743;28;20474;-73
2023/07/16 08:53:00;;;;;;;2.47;2.33;;;30.30;60.60;;;;;;5034842;28;20940;-73
2023/07/16 08:55:28;;;;;;;2.03;1.93;;;30.30;60.60;;;;;;5049856;28;20468;-73
2023/07/16 08:57:58;;;;;;;2.00;1.90;;;30.30;60.70;;;;;;5049027;28;20474;-73
2023/07/16 09:00:27;;;;;;;2.03;1.93;;;30.30;60.60;;;;;;5049077;28;20582;-73
2023/07/16 09:02:56;;;;;;;2.60;2.40;;;30.30;60.60;;;;;;5045189;28;20482;-73
2023/07/16 09:05:24;;;;;;;2.10;2.00;;;30.40;60.60;;;;;;5049081;28;20485;-73
2023/07/16 09:08:07;;;;;;;2.10;2.00;;;30.40;60.60;;;;;;5043195;28;20457;-73
2023/07/16 09:10:36;;;;;;;2.80;2.30;;;30.40;60.50;;;;;;5049283;28;20509;-73
2023/07/16 09:13:06;;;;;;;2.37;2.27;;;30.40;60.50;;;;;;5046048;28;20850;-73
2023/07/16 09:15:34;;;;;;;2.10;2.00;;;30.40;60.60;;;;;;5049867;28;20452;-73
2023/07/16 09:18:03;;;;;;;1.80;1.70;;;30.40;60.60;;;;;;5044688;28;20473;-73
2023/07/16 09:20:32;;;;;;;2.00;1.90;;;30.40;60.60;;;;;;5049800;28;20909;-73
2023/07/16 09:23:00;;;;;;;1.70;1.60;;;30.40;60.60;;;;;;5029308;28;20487;-73
2023/07/16 09:25:29;;;;;;;2.00;1.90;;;30.50;60.60;;;;;;5027000;28;20556;-73
2023/07/16 09:28:02;;;;;;;2.20;2.10;;;30.50;60.60;;;;;;5045962;28;20783;-73
2023/07/16 09:30:34;;;;;;;2.10;2.00;;;30.50;60.60;;;;;;5048860;28;20512;-73
2023/07/16 09:33:11;;;;;;;2.10;2.00;;;30.50;60.50;;;;;;5045667;28;20494;-73
2023/07/16 09:35:40;;;;;;;2.37;2.10;;;30.50;60.50;;;;;;5045709;28;20461;-73
2023/07/16 09:38:10;;;;;;;1.87;1.77;;;30.50;60.50;;;;;;5049619;28;20491;-73
2023/07/16 09:40:38;;;;;;;2.10;2.00;;;30.50;60.40;;;;;;5052284;28;20471;-73
2023/07/16 09:43:07;;;;;;;1.77;1.67;;;30.60;60.40;;;;;;5052990;28;20496;-73
2023/07/16 09:45:37;;;;;;;1.47;1.40;;;30.50;60.40;;;;;;5051357;28;20477;-73
2023/07/16 09:48:06;;;;;;;2.10;2.00;;;30.60;60.40;;;;;;5037787;28;20459;-73
2023/07/16 09:50:36;;;;;;;1.70;1.60;;;30.60;60.30;;;;;;5030312;28;20523;-73
2023/07/16 09:53:07;;;;;;;1.90;1.80;;;30.60;60.30;;;;;;5052280;28;20911;-73
2023/07/16 09:55:37;;;;;;;1.83;1.73;;;30.60;60.30;;;;;;5051690;28;20496;-73
2023/07/16 09:58:10;;;;;;;2.00;1.90;;;30.60;60.30;;;;;;5062087;28;20996;-73
2023/07/16 10:00:42;;;;;;;1.93;1.83;;;30.60;60.50;;;;;;5050484;28;20491;-73
2023/07/16 10:03:12;;;;;;;1.43;1.33;;;30.60;60.50;;;;;;5046499;28;20466;-73
2023/07/16 10:05:41;;;;;;;1.70;1.60;;;30.60;60.40;;;;;;5059955;28;20836;-73
2023/07/16 10:08:17;;;;;;;2.10;2.00;;;30.70;60.60;;;;;;5044060;28;20534;-73
2023/07/16 10:10:48;;;;;;;1.80;1.70;;;30.70;60.70;;;;;;5049123;28;20496;-73
2023/07/16 10:13:17;;;;;;;2.10;2.00;;;30.70;60.50;;;;;;5049683;28;20932;-73
2023/07/16 10:15:57;;;;;;;1.83;1.73;;;30.70;60.40;;;;;;5043250;28;21030;-73
2023/07/16 10:18:28;;;;;;;1.83;1.73;;;30.70;60.40;;;;;;5047144;28;20466;-73
2023/07/16 10:21:02;;;;;;;2.17;2.07;;;30.70;60.50;;;;;;5049024;28;20472;-73
2023/07/16 10:23:40;;;;;;;1.97;1.87;;;30.70;60.40;;;;;;5052232;28;20457;-73
2023/07/16 10:26:10;;;;;;;2.10;2.00;;;30.60;60.40;;;;;;5047671;28;20480;-73
2023/07/16 10:28:39;;;;;;;2.07;1.97;;;30.60;60.50;;;;;;5054105;28;20538;-73
2023/07/16 10:31:18;;;;;;;1.80;1.70;;;30.60;60.40;;;;;;5055427;28;20450;-73
2023/07/16 10:33:59;;;;;;;1.80;1.70;;;30.60;60.40;;;;;;5060390;28;20473;-73
2023/07/16 10:36:28;;;;;;;2.00;1.90;;;30.60;60.40;;;;;;5048464;28;20465;-73
2023/07/16 10:38:56;;;;;;;2.33;2.13;;;30.60;60.40;;;;;;5052882;28;20502;-73
2023/07/16 10:41:24;;;;;;;1.93;1.83;;;30.70;60.40;;;;;;5047151;28;21343;-74
2023/07/16 10:43:53;;;;;;;2.03;1.93;;;30.70;60.30;;;;;;5047459;28;20499;-73
2023/07/16 10:46:24;;;;;;;1.93;1.83;;;30.70;60.20;;;;;;5051297;28;20478;-73
2023/07/16 10:48:53;;;;;;;1.70;1.60;;;30.70;60.20;;;;;;5043970;28;20462;-73
2023/07/16 10:51:27;;;;;;;2.47;2.10;;;30.70;60.20;;;;;;5052193;28;20498;-73
2023/07/16 10:53:57;;;;;;;1.60;1.50;;;30.70;60.20;;;;;;5047416;28;20489;-74
2023/07/16 10:56:26;;;;;;;1.87;1.77;;;30.70;60.10;;;;;;5047069;28;20554;-73
2023/07/16 10:58:54;;;;;;;2.13;2.03;;;30.70;60.10;;;;;;5044095;28;20946;-73
2023/07/16 11:01:24;;;;;;;2.20;2.03;;;30.70;60.10;;;;;;5046071;28;20464;-74
2023/07/16 11:03:52;;;;;;;1.90;1.80;;;30.70;60.00;;;;;;5044716;28;20479;-74
2023/07/16 11:06:20;;;;;;;1.90;1.80;;;30.70;60.00;;;;;;5048290;28;20469;-74
2023/07/16 11:08:49;;;;;;;2.00;1.90;;;30.70;60.00;;;;;;5045774;28;20465;-73
2023/07/16 11:11:28;;;;;;;1.70;1.60;;;30.70;60.00;;;;;;5043581;28;20513;-74
2023/07/16 11:13:57;;;;;;;1.70;1.60;;;30.70;60.00;;;;;;5043404;28;20489;-73
2023/07/16 11:16:26;;;;;;;1.90;1.80;;;30.70;60.00;;;;;;5050443;28;20562;-73
2023/07/16 11:18:55;;;;;;;1.73;1.63;;;30.70;60.00;;;;;;5050360;28;21480;-74
2023/07/16 11:21:23;;;;;;;1.80;1.70;;;30.70;60.00;;;;;;5045373;28;20508;-74
2023/07/16 11:23:51;;;;;;;1.80;1.70;;;30.70;59.90;;;;;;5047312;28;20949;-74
2023/07/16 11:26:19;;;;;;;2.17;2.07;;;30.70;59.90;;;;;;5051238;28;20509;-74
2023/07/16 11:28:51;;;;;;;1.67;1.53;;;30.70;60.00;;;;;;5044649;28;20520;-74
2023/07/16 11:31:20;;;;;;;1.90;1.80;;;30.70;60.00;;;;;;5044740;28;20469;-74
2023/07/16 11:33:53;;;;;;;2.20;1.50;;;30.80;60.00;;;;;;5051705;28;20489;-74
2023/07/16 11:36:21;;;;;;;1.70;1.60;;;30.80;60.00;;;;;;5045513;28;20947;-74
2023/07/16 11:38:50;;;;;;;1.70;1.60;;;30.80;59.90;;;;;;5042323;28;21092;-74
2023/07/16 11:41:21;;;;;;;1.90;1.80;;;30.80;59.90;;;;;;5045503;28;20469;-74
2023/07/16 11:43:51;;;;;;;1.90;1.80;;;30.80;59.90;;;;;;5043441;28;20805;-74
2023/07/16 11:46:19;;;;;;;1.70;1.60;;;30.80;59.90;;;;;;5044078;28;20474;-74
2023/07/16 11:48:47;;;;;;;1.77;1.67;;;30.80;59.90;;;;;;5045412;28;20471;-74
2023/07/16 11:51:17;;;;;;;1.80;1.60;;;30.80;59.90;;;;;;5049800;28;20466;-74
2023/07/16 11:53:45;;;;;;;1.60;1.50;;;30.80;59.90;;;;;;5048257;28;20510;-74
2023/07/16 11:56:12;;;;;;;1.53;1.43;;;30.80;59.90;;;;;;5051534;28;20500;-74
2023/07/16 11:58:41;;;;;;;1.97;1.87;;;30.80;59.80;;;;;;5047011;28;20553;-74
2023/07/16 12:01:10;;;;;;;1.67;1.57;;;30.80;59.80;;;;;;5045958;28;20460;-74
2023/07/16 12:03:38;;;;;;;1.87;1.77;;;30.80;59.80;;;;;;5037776;28;21193;-74
2023/07/16 12:06:06;;;;;;;1.90;1.80;;;30.80;59.80;;;;;;5047607;28;20470;-74
2023/07/16 12:08:36;;;;;;;1.70;1.60;;;30.90;59.80;;;;;;5045424;28;20455;-74
2023/07/16 12:11:04;;;;;;;1.70;1.60;;;31.00;59.70;;;;;;5051199;28;20477;-74
2023/07/16 12:13:32;;;;;;;2.10;2.00;;;31.00;59.60;;;;;;5051982;28;20520;-74
2023/07/16 12:16:00;;;;;;;1.77;1.67;;;31.00;59.60;;;;;;5051918;28;20458;-74
2023/07/16 12:18:30;;;;;;;1.97;1.87;;;31.20;59.40;;;;;;5049433;28;20976;-74
2023/07/16 12:20:58;;;;;;;1.93;1.83;;;31.30;59.20;;;;;;5049249;28;20470;-74
2023/07/16 12:23:26;;;;;;;1.67;1.57;;;31.40;58.70;;;;;;5043001;28;20509;-74
2023/07/16 12:25:56;;;;;;;1.60;1.50;;;31.40;58.60;;;;;;5050809;28;20475;-74
2023/07/16 12:28:24;;;;;;;1.60;1.50;;;31.40;58.70;;;;;;5050554;28;20524;-74
2023/07/16 12:30:52;;;;;;;1.73;1.63;;;31.50;58.60;;;;;;5048290;28;20946;-74
2023/07/16 12:33:21;;;;;;;2.00;1.90;;;31.50;58.50;;;;;;5045228;28;20512;-74
2023/07/16 12:35:49;;;;;;;2.40;1.93;;;31.50;58.50;;;;;;5046353;28;20544;-74
2023/07/16 12:38:17;;;;;;;1.67;1.57;;;31.40;58.60;;;;;;5048305;28;20535;-74
2023/07/16 12:40:45;;;;;;;1.97;1.87;;;31.30;58.70;;;;;;5045657;28;20463;-74
2023/07/16 12:43:15;;;;;;;1.77;1.67;;;31.20;59.00;;;;;;5046909;28;20462;-74
2023/07/16 12:45:43;;;;;;;1.50;1.40;;;31.10;59.10;;;;;;5050214;28;20570;-74
2023/07/16 12:48:11;;;;;;;1.70;1.60;;;31.00;59.30;;;;;;5048783;28;20521;-74
2023/07/16 12:50:40;;;;;;;1.60;1.50;;;31.00;59.40;;;;;;5052782;28;20463;-74
2023/07/16 12:53:08;;;;;;;1.30;1.30;;;30.90;59.40;;;;;;5047413;28;20455;-74
2023/07/16 12:55:36;;;;;;;1.93;1.83;;;30.90;59.60;;;;;;5049664;28;21249;-74
2023/07/16 12:58:04;;;;;;;1.80;1.70;;;30.90;59.80;;;;;;5039377;28;20455;-74